MET'MAP v2.0
soon released !

Expected late october,
this new version will be
more efficient, smarter,
and hosted on a brand new
server x3 powerfull...
...and still free !


Not compatible ?
Try the mobile version !

LOG IN : | Subscribe | Disclaimer | Who is Orbifly ? |
ICAO code :

TAF - LFOE Evreux - 14 Nov 2019 14:53 UTC
Data Sources :     NOAA   


- Airport Elevation : 464 ft
- IATA code : EVX
- No reported NOTAMs.


LFOE - Evreux

Latest METAR recorded : 2019/11/14 13:30 LFOE 141330Z AUTO 15010KT 9999 FEW019 BKN029 OVC034 06/02 Q0997 NOSIG
NO TAF


MET'MAP, your aeronautical weather chart ! - Copyright ORBIFLY December 2007

Programming & Development : Alexandra Zaïnal
Co-Developer : Marc-Olivier Méhu
Technical & hardware support : Manuel Goepfert
Concept & Financing : Baudouin d'Aumeries